CheckWX is a tool to help pilots better visualize weather data.  It is not intended as a substitute for an official pre-flight weather briefing.

16:06:18 UTC

UBBY TAF
Zaqatala International Airport
Zaqatala, Azerbaijan
TAF UBBY 181400Z 1815/1824 VRB04KT 6000 -SHRA SCT020CB OVC030 TEMPO 1821/1824 3000 -DZ BR OVC005

Mar-18@
15:00 UTC

Mar-18 @ 15:00 UTC

Mar-19@
00:00 UTC

Mar-19 @ 00:00 UTC

TAF UBBY 181400Z 1815/1824 VRB04KT 6000 -SHRA SCT020CB OVC030
Wind
  • Variable at 4 KTS
Conditions
Light Rain
Cloud Levels
  • Scattered at 2,000' AGL
  • Overcast at 3,000' AGL

Mar-18@
21:00 UTC

Mar-18 @ 21:00 UTC

Mar-19@
00:00 UTC

Mar-19 @ 00:00 UTC

TEMPO 1821/1824 3000 -DZ BR OVC005

Temporary

Temporary Changes expected for less than half the time period

Conditions
Light Drizzle, Mist
Cloud Levels
  • Overcast at 500' AGL